Terminal Aerodrome Forecast
Issued by NWS

Home | Current Version | Previous Version | Text Only | Print | Product List | Glossary Off
Versions: 1 2 3 4 5 6 7 8 9 10 11 12 13 14 15 16 17 18 19 20 21 22 23 24 25 26 27 28 29 30 31 32 33 34

000
FTUS43 KLOT 222003 AAA
TAFORD
TAF AMD
KORD 222003Z 2220/2324 08010KT P6SM SKC
     FM230100 09006KT P6SM SKC
     FM231000 14004KT P6SM SCT100 BKN250
     FM231600 17008KT P6SM BKN070
     FM232100 15008KT P6SM BKN070=

USA.gov is the U.S. government's official web portal to all federal, state and local government web resources and services.